createdAt,value
2017-12-26T00:01:27.123Z,72.90
2017-12-26T00:03:55.918Z,72.90
2017-12-26T00:06:24.141Z,72.90
2017-12-26T00:08:53.076Z,72.80
2017-12-26T00:11:21.221Z,72.70
2017-12-26T00:13:49.416Z,72.50
2017-12-26T00:16:17.283Z,72.40
2017-12-26T00:22:17.181Z,72.50
2017-12-26T00:24:45.940Z,72.30
2017-12-26T00:27:14.805Z,72.50
2017-12-26T00:29:42.678Z,72.60
2017-12-26T00:32:11.353Z,72.70
2017-12-26T00:34:39.321Z,72.70
2017-12-26T00:37:07.181Z,73.00
2017-12-26T00:39:39.200Z,73.00
2017-12-26T00:42:07.040Z,73.10
2017-12-26T00:44:35.733Z,73.40
2017-12-26T00:47:03.716Z,73.40
2017-12-26T00:49:31.638Z,73.40
2017-12-26T00:52:03.346Z,73.50
2017-12-26T00:54:31.213Z,73.40
2017-12-26T00:56:59.025Z,73.60
2017-12-26T00:59:27.702Z,73.40
2017-12-26T01:01:56.464Z,73.30
2017-12-26T01:04:25.105Z,73.50
2017-12-26T01:06:52.878Z,73.40
2017-12-26T01:09:21.721Z,73.50
2017-12-26T01:11:50.061Z,73.50
2017-12-26T01:14:18.271Z,73.40
2017-12-26T01:16:46.485Z,73.50
2017-12-26T01:19:16.122Z,73.50
2017-12-26T01:21:45.039Z,73.50
2017-12-26T01:24:15.766Z,73.40
2017-12-26T01:26:44.785Z,73.40
2017-12-26T01:29:14.574Z,73.30
2017-12-26T01:31:43.201Z,72.90
2017-12-26T01:34:13.614Z,73.10
2017-12-26T01:36:42.968Z,73.10
2017-12-26T01:39:12.542Z,73.10
2017-12-26T01:41:43.632Z,73.40
2017-12-26T01:44:11.946Z,73.40
2017-12-26T01:46:41.988Z,73.80
2017-12-26T01:49:12.071Z,73.90
2017-12-26T01:51:40.195Z,73.90
2017-12-26T01:54:08.783Z,73.80
2017-12-26T01:56:36.836Z,73.70
2017-12-26T01:59:05.862Z,73.60
2017-12-26T02:01:35.925Z,73.50
2017-12-26T02:04:03.953Z,73.50
2017-12-26T02:06:32.053Z,73.50
2017-12-26T02:09:00.096Z,73.70
2017-12-26T02:11:27.961Z,73.70
2017-12-26T02:13:55.877Z,73.60
2017-12-26T02:16:23.714Z,73.60
2017-12-26T02:18:51.619Z,73.60
2017-12-26T02:21:19.502Z,73.80
2017-12-26T02:23:47.359Z,73.80
2017-12-26T02:26:15.232Z,73.80
2017-12-26T02:28:43.069Z,73.80
2017-12-26T02:31:10.964Z,74.00
2017-12-26T02:33:38.783Z,74.10
2017-12-26T02:36:06.832Z,74.20
2017-12-26T02:38:35.621Z,74.40
2017-12-26T02:41:04.320Z,74.40
2017-12-26T02:43:32.195Z,74.40
2017-12-26T02:46:00.047Z,74.30
2017-12-26T02:48:28.730Z,74.10
2017-12-26T02:50:56.628Z,74.00
2017-12-26T02:53:24.559Z,73.90
2017-12-26T02:55:52.460Z,74.20
2017-12-26T02:58:20.290Z,74.20
2017-12-26T03:00:48.276Z,74.10
2017-12-26T03:03:16.275Z,74.30
2017-12-26T03:05:44.337Z,74.50
2017-12-26T03:08:12.252Z,74.60
2017-12-26T03:10:40.195Z,74.70
2017-12-26T03:13:09.472Z,74.70
2017-12-26T03:15:37.368Z,74.90
2017-12-26T03:18:06.703Z,74.90
2017-12-26T03:20:35.297Z,75.20
2017-12-26T03:23:03.296Z,75.20
2017-12-26T03:25:31.177Z,75.20
2017-12-26T03:27:59.045Z,75.40
2017-12-26T03:30:27.183Z,75.50
2017-12-26T03:32:55.894Z,75.70
2017-12-26T03:35:23.725Z,75.70
2017-12-26T03:37:51.648Z,75.80
2017-12-26T03:40:19.600Z,75.90
2017-12-26T03:42:47.481Z,76.00
2017-12-26T03:45:15.310Z,76.10
2017-12-26T03:47:43.307Z,76.10
2017-12-26T03:50:12.047Z,76.30
2017-12-26T03:52:39.951Z,76.30
2017-12-26T03:55:08.709Z,76.50
2017-12-26T03:57:36.980Z,76.40
2017-12-26T04:00:19.369Z,76.40
2017-12-26T04:02:47.362Z,76.40
2017-12-26T04:05:15.226Z,76.50
2017-12-26T04:07:43.288Z,76.40
2017-12-26T04:10:11.256Z,76.50
2017-12-26T04:12:47.009Z,76.50
2017-12-26T04:15:14.950Z,76.50
2017-12-26T04:17:43.868Z,76.70
2017-12-26T04:20:12.706Z,76.60
2017-12-26T04:22:40.792Z,76.50
2017-12-26T04:25:08.937Z,76.60
2017-12-26T04:27:37.925Z,76.50
2017-12-26T04:30:05.843Z,77.20
2017-12-26T04:32:33.657Z,76.80
2017-12-26T04:35:02.381Z,77.10
2017-12-26T04:37:30.548Z,77.10
2017-12-26T04:39:59.109Z,77.30
2017-12-26T04:42:27.733Z,77.50
2017-12-26T04:44:55.621Z,77.30
2017-12-26T04:47:25.967Z,77.70
2017-12-26T04:49:54.425Z,77.80
2017-12-26T04:52:22.930Z,77.80
2017-12-26T04:54:51.003Z,77.70
2017-12-26T05:00:31.624Z,77.90
2017-12-26T05:02:59.592Z,78.00
2017-12-26T05:05:28.475Z,78.10
2017-12-26T05:07:56.444Z,78.30
2017-12-26T05:10:24.380Z,78.20
2017-12-26T05:12:52.224Z,78.20
2017-12-26T05:15:20.998Z,78.30
2017-12-26T05:17:48.910Z,78.20
2017-12-26T05:20:16.834Z,78.00
2017-12-26T05:22:45.485Z,77.60
2017-12-26T05:25:13.387Z,77.60
2017-12-26T05:27:42.081Z,77.10
2017-12-26T05:30:11.678Z,77.10
2017-12-26T05:32:39.676Z,77.00
2017-12-26T05:35:07.682Z,76.80
2017-12-26T05:37:35.703Z,76.60
2017-12-26T05:40:03.464Z,77.10
2017-12-26T05:42:32.039Z,76.40
2017-12-26T05:44:59.927Z,76.30
2017-12-26T05:47:28.578Z,76.50
2017-12-26T05:49:56.428Z,76.50
2017-12-26T05:52:24.436Z,76.40
2017-12-26T05:54:54.390Z,76.20
2017-12-26T05:57:22.417Z,76.10
2017-12-26T05:59:51.202Z,76.40
2017-12-26T06:02:19.839Z,76.60
2017-12-26T06:04:47.698Z,76.50
2017-12-26T06:07:16.475Z,76.50
2017-12-26T06:09:44.324Z,76.60
2017-12-26T06:12:12.264Z,76.60
2017-12-26T06:14:40.155Z,76.50
2017-12-26T06:17:07.965Z,76.50
2017-12-26T06:19:35.880Z,76.50
2017-12-26T06:22:04.029Z,76.50
2017-12-26T06:24:31.932Z,76.50
2017-12-26T06:26:59.702Z,76.70
2017-12-26T06:29:27.573Z,76.80
2017-12-26T06:31:56.796Z,77.00
2017-12-26T06:34:25.814Z,77.00
2017-12-26T06:36:53.709Z,76.90
2017-12-26T06:39:21.644Z,76.80
2017-12-26T06:41:49.775Z,76.60
2017-12-26T06:44:17.783Z,76.30
2017-12-26T06:46:45.706Z,76.00
2017-12-26T06:49:13.626Z,75.60
2017-12-26T06:51:41.640Z,75.50
2017-12-26T06:54:09.574Z,75.10
2017-12-26T06:56:37.689Z,75.00
2017-12-26T06:59:05.704Z,74.90
2017-12-26T07:01:33.572Z,74.80
2017-12-26T07:04:01.579Z,74.70
2017-12-26T07:06:55.436Z,74.40
2017-12-26T07:09:23.424Z,74.30
2017-12-26T07:11:51.267Z,74.30
2017-12-26T07:14:19.235Z,74.30
2017-12-26T07:16:47.059Z,74.00
2017-12-26T07:19:17.169Z,73.90
2017-12-26T07:21:49.541Z,73.60
2017-12-26T07:24:17.899Z,73.60
2017-12-26T07:26:45.811Z,73.40
2017-12-26T07:29:13.896Z,73.60
2017-12-26T07:31:51.424Z,73.60
2017-12-26T07:40:02.421Z,73.60
2017-12-26T07:42:30.365Z,73.50
2017-12-26T07:45:21.795Z,72.90
2017-12-26T07:47:49.782Z,72.30
2017-12-26T07:50:18.293Z,72.30
2017-12-26T07:52:48.354Z,72.50
2017-12-26T07:55:16.357Z,72.20
2017-12-26T07:57:56.283Z,72.30
2017-12-26T08:00:27.145Z,71.90
2017-12-26T08:02:57.268Z,71.80
2017-12-26T08:05:35.594Z,70.60
2017-12-26T08:08:08.212Z,69.10
2017-12-26T08:10:40.373Z,64.90
2017-12-26T08:13:09.492Z,59.80
2017-12-26T08:15:42.048Z,59.70
2017-12-26T08:18:10.237Z,58.70
2017-12-26T08:20:39.124Z,57.90
2017-12-26T08:23:29.520Z,57.90
2017-12-26T08:25:58.586Z,57.20
2017-12-26T08:28:30.789Z,56.30
2017-12-26T08:30:58.954Z,55.40
2017-12-26T08:33:26.991Z,56.60
2017-12-26T08:35:55.979Z,59.50
2017-12-26T08:38:23.885Z,63.70
2017-12-26T08:40:53.885Z,67.00
2017-12-26T08:43:21.800Z,68.60
2017-12-26T08:45:50.114Z,69.50
2017-12-26T08:48:18.451Z,69.60
2017-12-26T08:50:47.358Z,69.70
2017-12-26T08:53:15.253Z,70.00
2017-12-26T08:55:43.192Z,70.30
2017-12-26T08:58:12.948Z,70.30
2017-12-26T09:00:40.909Z,70.30
2017-12-26T09:03:09.578Z,70.30
2017-12-26T09:05:38.356Z,70.00
2017-12-26T09:08:07.079Z,69.90
2017-12-26T09:10:35.085Z,69.90
2017-12-26T09:13:04.451Z,69.90
2017-12-26T09:15:33.431Z,69.60
2017-12-26T09:18:02.340Z,69.70
2017-12-26T09:20:32.051Z,69.70
2017-12-26T09:23:09.497Z,69.70
2017-12-26T09:25:37.953Z,70.00
2017-12-26T09:28:05.852Z,70.80
2017-12-26T09:30:34.631Z,73.10
2017-12-26T09:33:03.025Z,73.20
2017-12-26T09:35:31.320Z,73.80
2017-12-26T09:38:02.053Z,75.30
2017-12-26T09:40:30.697Z,76.00
2017-12-26T09:42:58.700Z,76.00
2017-12-26T09:45:26.687Z,76.50
2017-12-26T09:47:54.907Z,76.20
2017-12-26T09:50:23.085Z,76.60
2017-12-26T09:52:51.000Z,76.40
2017-12-26T09:55:20.533Z,76.50
2017-12-26T09:57:48.661Z,76.50
2017-12-26T10:00:16.578Z,76.20
2017-12-26T10:02:44.862Z,76.80
2017-12-26T10:05:12.840Z,76.80
2017-12-26T10:07:40.976Z,76.60
2017-12-26T10:10:09.749Z,77.30
2017-12-26T10:12:38.399Z,77.40
2017-12-26T10:15:06.387Z,77.50
2017-12-26T10:17:34.394Z,77.60
2017-12-26T10:20:02.621Z,77.60
2017-12-26T10:22:30.692Z,77.70
2017-12-26T10:24:59.047Z,78.30
2017-12-26T10:27:33.923Z,77.80
2017-12-26T10:30:01.976Z,77.90
2017-12-26T10:32:31.751Z,78.00
2017-12-26T10:35:00.165Z,77.80
2017-12-26T10:37:28.740Z,77.10
2017-12-26T10:39:58.916Z,76.70
2017-12-26T10:42:26.897Z,77.00
2017-12-26T10:44:55.733Z,76.30
2017-12-26T10:47:23.700Z,76.20
2017-12-26T10:49:51.622Z,75.50
2017-12-26T10:52:20.559Z,75.60
2017-12-26T10:54:49.161Z,75.10
2017-12-26T10:57:17.130Z,75.80
2017-12-26T10:59:45.372Z,75.90
2017-12-26T11:02:13.479Z,75.00
2017-12-26T11:04:42.401Z,75.40
2017-12-26T11:07:11.641Z,76.60
2017-12-26T11:09:50.071Z,75.90
2017-12-26T11:12:18.634Z,75.90
2017-12-26T11:14:46.683Z,75.50
2017-12-26T11:17:15.095Z,75.00
2017-12-26T11:19:43.176Z,75.50
2017-12-26T11:22:12.305Z,76.20
2017-12-26T11:24:40.343Z,75.90
2017-12-26T11:27:09.438Z,76.40
2017-12-26T11:29:37.335Z,76.70
2017-12-26T11:32:05.521Z,76.70
2017-12-26T11:34:33.635Z,77.40
2017-12-26T11:37:01.947Z,76.70
2017-12-26T11:39:30.854Z,77.20
2017-12-26T11:41:58.837Z,77.10
2017-12-26T11:44:27.031Z,76.30
2017-12-26T11:46:55.262Z,76.80
2017-12-26T11:49:23.372Z,76.80
2017-12-26T11:51:52.209Z,77.60
2017-12-26T11:54:20.882Z,77.50
2017-12-26T11:56:48.817Z,77.50
2017-12-26T11:59:19.610Z,77.70
2017-12-26T12:01:47.623Z,78.40
2017-12-26T12:04:25.803Z,79.40
2017-12-26T12:06:53.857Z,79.50
2017-12-26T12:09:21.953Z,80.30
2017-12-26T12:11:53.283Z,80.20
2017-12-26T12:14:21.348Z,80.90
2017-12-26T12:16:49.614Z,81.50
2017-12-26T12:19:18.373Z,81.70
2017-12-26T12:21:47.488Z,82.10
2017-12-26T12:24:16.126Z,82.00
2017-12-26T12:26:44.034Z,82.60
2017-12-26T12:29:13.021Z,82.50
2017-12-26T12:31:42.167Z,82.40
2017-12-26T12:34:10.327Z,83.00
2017-12-26T12:36:38.281Z,81.80
2017-12-26T12:39:08.803Z,81.40
2017-12-26T12:41:37.591Z,78.90
2017-12-26T12:44:05.671Z,78.90
2017-12-26T12:46:33.617Z,77.70
2017-12-26T12:49:02.241Z,77.80
2017-12-26T12:51:30.302Z,77.00
2017-12-26T12:53:58.270Z,77.30
2017-12-26T12:56:28.091Z,78.90
2017-12-26T12:58:56.232Z,78.90
2017-12-26T13:01:24.443Z,78.50
2017-12-26T13:03:53.532Z,78.80
2017-12-26T13:06:21.705Z,78.80
2017-12-26T13:08:51.656Z,79.20
2017-12-26T13:11:20.018Z,79.10
2017-12-26T13:13:49.427Z,78.80
2017-12-26T13:16:18.797Z,77.30
2017-12-26T13:18:46.872Z,76.50
2017-12-26T13:21:15.827Z,76.30
2017-12-26T13:23:45.375Z,76.30
2017-12-26T13:26:14.182Z,77.80
2017-12-26T13:28:50.726Z,77.40
2017-12-26T13:31:18.627Z,77.50
2017-12-26T13:33:47.385Z,78.10
2017-12-26T13:36:16.845Z,77.60
2017-12-26T13:38:50.899Z,78.40
2017-12-26T13:41:20.929Z,77.50
2017-12-26T13:43:50.475Z,77.90
2017-12-26T13:46:25.038Z,77.90
2017-12-26T13:49:12.688Z,77.80
2017-12-26T13:51:40.756Z,78.20
2017-12-26T13:54:11.295Z,78.00
2017-12-26T13:56:40.054Z,77.20
2017-12-26T13:59:08.972Z,77.30
2017-12-26T14:01:37.954Z,76.40
2017-12-26T14:04:05.880Z,76.20
2017-12-26T14:06:42.170Z,76.60
2017-12-26T14:09:10.763Z,76.30
2017-12-26T14:11:40.144Z,75.90
2017-12-26T14:14:08.138Z,75.50
2017-12-26T14:16:39.112Z,75.80
2017-12-26T14:19:11.321Z,75.80
2017-12-26T14:21:42.508Z,75.30
2017-12-26T14:24:12.085Z,74.70
2017-12-26T14:26:49.124Z,75.30
2017-12-26T14:29:18.155Z,75.50
2017-12-26T14:31:47.081Z,75.90
2017-12-26T14:34:15.825Z,76.30
2017-12-26T14:36:45.269Z,76.40
2017-12-26T14:39:14.801Z,77.00
2017-12-26T14:41:47.626Z,77.40
2017-12-26T14:44:18.405Z,77.40
2017-12-26T14:46:48.614Z,77.40
2017-12-26T14:49:18.824Z,77.10
2017-12-26T14:51:46.948Z,77.10
2017-12-26T14:57:03.783Z,78.20
2017-12-26T14:59:33.740Z,78.70
2017-12-26T15:02:02.997Z,78.50
2017-12-26T15:04:36.904Z,79.10
2017-12-26T15:07:05.013Z,79.00
2017-12-26T15:09:33.048Z,79.00
2017-12-26T15:12:02.138Z,79.30
2017-12-26T15:14:31.222Z,79.10
2017-12-26T15:16:59.661Z,79.10
2017-12-26T15:19:33.359Z,79.40
2017-12-26T15:22:03.854Z,79.50
2017-12-26T15:24:31.858Z,80.00
2017-12-26T15:26:59.732Z,80.30
2017-12-26T15:29:28.214Z,79.80
2017-12-26T15:31:56.855Z,79.90
2017-12-26T15:34:26.207Z,79.60
2017-12-26T15:37:04.774Z,80.20
2017-12-26T15:39:34.786Z,80.20
2017-12-26T15:42:03.259Z,80.20
2017-12-26T15:44:33.285Z,80.20
2017-12-26T15:47:19.961Z,80.20
2017-12-26T15:50:02.407Z,79.80
2017-12-26T15:52:35.556Z,79.60
2017-12-26T15:55:03.515Z,80.00
2017-12-26T15:57:31.585Z,79.70
2017-12-26T15:59:59.746Z,79.60
2017-12-26T16:02:27.954Z,78.90
2017-12-26T16:04:56.730Z,78.30
2017-12-26T16:07:29.448Z,77.70
2017-12-26T16:10:02.971Z,77.10
2017-12-26T16:12:33.471Z,77.10
2017-12-26T16:15:02.481Z,77.00
2017-12-26T16:17:31.804Z,77.20
2017-12-26T16:20:00.239Z,77.10
2017-12-26T16:22:28.318Z,77.10
2017-12-26T16:24:56.402Z,77.40
2017-12-26T16:27:25.313Z,77.70
2017-12-26T16:29:55.351Z,77.30
2017-12-26T16:32:24.054Z,77.40
2017-12-26T16:34:52.353Z,77.30
2017-12-26T16:37:21.111Z,77.40
2017-12-26T16:39:50.443Z,77.50
2017-12-26T16:42:19.683Z,76.70
2017-12-26T16:44:47.652Z,76.00
2017-12-26T16:47:15.995Z,75.90
2017-12-26T16:49:46.155Z,75.20
2017-12-26T16:52:16.410Z,75.10
2017-12-26T16:54:45.145Z,76.00
2017-12-26T16:57:16.237Z,75.50
2017-12-26T16:59:46.006Z,75.40
2017-12-26T17:02:17.432Z,75.30
2017-12-26T17:04:46.244Z,75.50
2017-12-26T17:07:18.863Z,75.40
2017-12-26T17:09:48.950Z,75.50
2017-12-26T17:12:20.528Z,75.70
2017-12-26T17:14:50.185Z,75.30
2017-12-26T17:17:23.533Z,75.30
2017-12-26T17:19:56.832Z,75.60
2017-12-26T17:22:27.756Z,75.60
2017-12-26T17:24:56.723Z,76.00
2017-12-26T17:27:27.077Z,76.40
2017-12-26T17:29:56.600Z,77.00
2017-12-26T17:32:26.569Z,77.00
2017-12-26T17:34:56.994Z,76.90
2017-12-26T17:37:26.827Z,76.50
2017-12-26T17:40:00.460Z,77.00
2017-12-26T17:42:30.140Z,77.60
2017-12-26T17:45:00.700Z,76.50
2017-12-26T17:47:36.530Z,77.90
2017-12-26T17:50:08.087Z,78.00
2017-12-26T17:52:39.871Z,78.00
2017-12-26T17:55:11.521Z,78.00
2017-12-26T17:57:41.087Z,78.10
2017-12-26T18:00:12.501Z,78.50
2017-12-26T18:02:42.611Z,79.60
2017-12-26T18:05:15.019Z,80.30
2017-12-26T18:07:45.085Z,80.20
2017-12-26T18:10:13.531Z,80.30
2017-12-26T18:12:41.732Z,80.40
2017-12-26T18:15:11.410Z,79.50
2017-12-26T18:17:44.322Z,80.40
2017-12-26T18:20:15.101Z,80.20
2017-12-26T18:22:44.581Z,80.70
2017-12-26T18:25:15.542Z,80.60
2017-12-26T18:27:44.555Z,79.90
2017-12-26T18:30:17.627Z,79.80
2017-12-26T18:32:48.074Z,79.10
2017-12-26T18:35:21.248Z,77.30
2017-12-26T18:37:50.066Z,77.30
2017-12-26T18:40:18.362Z,77.30
2017-12-26T18:42:46.606Z,76.50
2017-12-26T18:45:18.164Z,77.30
2017-12-26T18:47:46.961Z,76.10
2017-12-26T18:50:23.829Z,76.10
2017-12-26T18:52:55.246Z,76.30
2017-12-26T18:55:26.886Z,76.10
2017-12-26T18:57:57.313Z,76.10
2017-12-26T19:00:26.395Z,75.80
2017-12-26T19:03:02.962Z,75.00
2017-12-26T19:05:37.620Z,75.00
2017-12-26T19:08:06.072Z,75.00
2017-12-26T19:10:37.963Z,75.40
2017-12-26T19:13:10.638Z,75.00
2017-12-26T19:15:46.095Z,75.10
2017-12-26T19:18:20.353Z,74.00
2017-12-26T19:20:54.399Z,74.00
2017-12-26T19:23:27.409Z,74.00
2017-12-26T19:25:55.915Z,73.90
2017-12-26T19:28:24.952Z,73.80
2017-12-26T19:30:52.899Z,74.00
2017-12-26T19:33:25.229Z,74.20
2017-12-26T19:35:55.984Z,73.90
2017-12-26T19:38:25.686Z,74.00
2017-12-26T19:41:26.418Z,73.80
2017-12-26T19:43:55.675Z,73.90
2017-12-26T19:46:26.211Z,73.50
2017-12-26T19:48:58.646Z,73.60
2017-12-26T19:51:31.652Z,74.20
2017-12-26T19:54:06.895Z,74.10
2017-12-26T19:56:37.206Z,73.90
2017-12-26T19:59:07.690Z,74.00
2017-12-26T20:01:38.354Z,74.00
2017-12-26T20:04:15.005Z,74.00
2017-12-26T20:06:45.680Z,73.40
2017-12-26T20:09:21.443Z,73.70
2017-12-26T20:11:49.597Z,73.40
2017-12-26T20:14:17.797Z,73.70
2017-12-26T20:16:47.177Z,73.70
2017-12-26T20:19:18.468Z,74.00
2017-12-26T20:21:48.495Z,74.00
2017-12-26T20:24:17.629Z,73.40
2017-12-26T20:26:48.093Z,73.30
2017-12-26T20:29:19.709Z,73.70
2017-12-26T20:31:48.416Z,73.20
2017-12-26T20:34:16.455Z,73.20
2017-12-26T20:36:46.190Z,73.20
2017-12-26T20:39:15.533Z,73.10
2017-12-26T20:41:46.933Z,73.10
2017-12-26T20:44:21.106Z,73.00
2017-12-26T20:46:58.899Z,73.50
2017-12-26T20:49:40.732Z,73.50
2017-12-26T20:52:16.430Z,73.40
2017-12-26T20:54:46.441Z,72.90
2017-12-26T20:57:14.952Z,72.90
2017-12-26T20:59:44.378Z,72.70
2017-12-26T21:02:13.417Z,72.50
2017-12-26T21:04:44.566Z,72.60
2017-12-26T21:07:17.149Z,72.80
2017-12-26T21:09:49.914Z,72.80
2017-12-26T21:12:34.459Z,72.80
2017-12-26T21:15:05.876Z,72.30
2017-12-26T21:17:41.162Z,72.60
2017-12-26T21:20:10.355Z,72.50
2017-12-26T21:22:41.183Z,72.90
2017-12-26T21:25:10.893Z,72.80
2017-12-26T21:27:44.446Z,72.90
2017-12-26T21:30:29.670Z,73.20
2017-12-26T21:33:05.016Z,73.20
2017-12-26T21:35:36.074Z,73.20
2017-12-26T21:38:08.259Z,73.10
2017-12-26T21:40:39.262Z,73.30
2017-12-26T21:43:14.144Z,73.50
2017-12-26T21:45:48.150Z,73.70
2017-12-26T21:50:58.627Z,73.60
2017-12-26T21:53:30.032Z,73.80
2017-12-26T21:56:05.886Z,73.80
2017-12-26T21:58:36.555Z,73.80
2017-12-26T22:01:07.207Z,73.80
2017-12-26T22:03:42.996Z,73.50
2017-12-26T22:06:18.488Z,73.60
2017-12-26T22:08:51.059Z,73.30
2017-12-26T22:11:30.036Z,73.40
2017-12-26T22:14:09.594Z,73.30
2017-12-26T22:16:38.092Z,73.20
2017-12-26T22:19:12.554Z,73.00
2017-12-26T22:21:44.216Z,73.30
2017-12-26T22:24:22.019Z,73.30
2017-12-26T22:26:51.215Z,73.20
2017-12-26T22:29:22.197Z,73.10
2017-12-26T22:31:51.775Z,73.10
2017-12-26T22:34:27.731Z,73.30
2017-12-26T22:37:30.610Z,73.00
2017-12-26T22:40:14.285Z,73.00
2017-12-26T22:42:59.472Z,73.10
2017-12-26T22:45:44.539Z,73.10
2017-12-26T22:48:16.603Z,73.30
2017-12-26T22:50:49.661Z,72.80
2017-12-26T22:53:19.383Z,72.90
2017-12-26T22:55:52.223Z,72.40
2017-12-26T22:58:32.889Z,72.40
2017-12-26T23:01:11.468Z,72.80
2017-12-26T23:04:04.144Z,72.90
2017-12-26T23:06:52.133Z,72.40
2017-12-26T23:09:20.188Z,72.50
2017-12-26T23:11:50.377Z,72.20
2017-12-26T23:14:25.245Z,72.10
2017-12-26T23:18:01.494Z,71.90
2017-12-26T23:20:36.956Z,71.40
2017-12-26T23:23:10.229Z,71.50
2017-12-26T23:27:19.435Z,71.80
2017-12-26T23:30:55.310Z,71.50
2017-12-26T23:34:53.103Z,71.50
2017-12-26T23:42:12.249Z,71.00
2017-12-26T23:45:45.234Z,71.30
2017-12-26T23:50:20.011Z,70.90
2017-12-26T23:52:55.225Z,71.40
2017-12-26T23:57:32.459Z,71.60
